Time;durP1;ratioP1;P1;durP2;ratioP2;P2;SDS_P1;SDS_P2;PMS_P1;PMS_P2;Temp;Humidity;BMP_temperature;BMP_pressure;BME280_temperature;BME280_humidity;BME280_pressure;Samples;Min_cycle;Max_cycle;Signal;HPM_P1;HPM_P2
2021/03/06 00:02:22;;;;;;;;;;;;;;;12.09;60.37;101310.09;5036741;28;19916;-78
2021/03/06 00:05:07;;;;;;;;;;;;;;;12.00;59.91;101316.28;5040300;28;19913;-79
2021/03/06 00:07:51;;;;;;;;;;;;;;;12.13;60.08;101322.78;5024298;28;19916;-79
2021/03/06 00:10:36;;;;;;;;;;;;;;;11.88;60.59;101324.22;5052123;28;19913;-79
2021/03/06 00:13:20;;;;;;;;;;;;;;;11.96;60.66;101330.84;5025806;28;19917;-77
2021/03/06 00:16:05;;;;;;;;;;;;;;;11.80;60.83;101324.94;5053884;28;19913;-79
2021/03/06 00:18:50;;;;;;;;;;;;;;;11.93;60.37;101335.00;5028142;28;19913;-79
2021/03/06 00:21:34;;;;;;;;;;;;;;;12.03;60.45;101342.13;5042176;28;19912;-79
2021/03/06 00:24:21;;;;;;;;;;;;;;;11.90;60.68;101342.97;5040556;28;19912;-79
2021/03/06 00:27:05;;;;;;;;;;;;;;;11.72;61.15;101338.47;5059832;28;19913;-78
2021/03/06 00:29:50;;;;;;;;;;;;;;;11.82;61.05;101351.88;5042241;28;21188;-78
2021/03/06 00:32:34;;;;;;;;;;;;;;;11.87;60.31;101349.03;5044034;28;19917;-79
2021/03/06 00:35:19;;;;;;;;;;;;;;;11.73;60.90;101364.63;5055940;28;19913;-79
2021/03/06 00:38:04;;;;;;;;;;;;;;;11.83;60.55;101364.41;5040892;28;19913;-78
2021/03/06 00:40:48;;;;;;;;;;;;;;;11.93;59.97;101378.59;5044708;28;19913;-78
2021/03/06 00:43:34;;;;;;;;;;;;;;;11.93;59.52;101380.53;5047329;28;19912;-77
2021/03/06 00:46:20;;;;;;;;;;;;;;;11.93;58.91;101386.78;5051968;28;19913;-78
2021/03/06 00:49:04;;;;;;;;;;;;;;;11.68;59.05;101389.22;5043299;28;19912;-77
2021/03/06 00:51:50;;;;;;;;;;;;;;;11.71;58.84;101394.06;5042096;28;19917;-77
2021/03/06 00:54:38;;;;;;;;;;;;;;;11.66;58.91;101400.44;5045994;28;19912;-77
2021/03/06 00:57:23;;;;;;;;;;;;;;;11.65;58.52;101409.69;5038276;28;20318;-79
2021/03/06 01:00:10;;;;;;;;;;;;;;;11.34;58.75;101406.81;5055564;28;19913;-79
2021/03/06 01:02:57;;;;;;;;;;;;;;;11.47;58.24;101416.91;5056092;28;20294;-79
2021/03/06 01:05:42;;;;;;;;;;;;;;;11.41;58.95;101425.47;5041640;28;19912;-80
2021/03/06 01:08:26;;;;;;;;;;;;;;;11.48;58.36;101414.97;5053947;28;19913;-79
2021/03/06 01:11:10;;;;;;;;;;;;;;;11.41;58.91;101422.75;5030992;28;20371;-79
2021/03/06 01:13:55;;;;;;;;;;;;;;;11.24;59.76;101431.50;5040857;28;19920;-78
2021/03/06 01:16:40;;;;;;;;;;;;;;;11.31;59.85;101428.41;5038380;28;20391;-78
2021/03/06 01:19:26;;;;;;;;;;;;;;;11.09;60.98;101431.81;5054175;28;19912;-79
2021/03/06 01:22:10;;;;;;;;;;;;;;;11.07;61.64;101434.81;5055334;28;19913;-79
2021/03/06 01:24:55;;;;;;;;;;;;;;;10.88;62.69;101436.81;5057735;28;19913;-79
2021/03/06 01:27:41;;;;;;;;;;;;;;;10.99;62.33;101430.06;5057102;28;19912;-79
2021/03/06 01:30:25;;;;;;;;;;;;;;;10.53;63.25;101435.50;5055270;28;19912;-79
2021/03/06 01:33:10;;;;;;;;;;;;;;;10.42;64.57;101433.25;5041236;28;19916;-79
2021/03/06 01:35:55;;;;;;;;;;;;;;;10.22;65.07;101439.81;5054949;28;19999;-77
2021/03/06 01:38:41;;;;;;;;;;;;;;;10.26;65.34;101440.81;5032362;28;19912;-78
2021/03/06 01:41:27;;;;;;;;;;;;;;;10.25;64.71;101448.19;5044227;28;19913;-79
2021/03/06 01:44:11;;;;;;;;;;;;;;;10.18;65.08;101452.38;5041036;28;19913;-79
2021/03/06 01:46:57;;;;;;;;;;;;;;;10.06;65.62;101452.78;5042096;28;19912;-79
2021/03/06 01:49:42;;;;;;;;;;;;;;;9.83;66.76;101464.50;5045554;28;19920;-81
2021/03/06 01:52:28;;;;;;;;;;;;;;;9.75;66.97;101462.47;5039261;28;19916;-79
2021/03/06 01:55:15;;;;;;;;;;;;;;;9.84;66.13;101453.38;5046463;28;19912;-78
2021/03/06 01:58:00;;;;;;;;;;;;;;;9.91;66.43;101471.19;5044979;28;19921;-78
2021/03/06 02:00:45;;;;;;;;;;;;;;;9.71;66.98;101461.41;5053770;28;19913;-78
2021/03/06 02:03:29;;;;;;;;;;;;;;;9.72;67.43;101482.03;5026487;28;19912;-79
2021/03/06 02:06:15;;;;;;;;;;;;;;;9.78;67.84;101473.53;5046229;28;19913;-79
2021/03/06 02:08:59;;;;;;;;;;;;;;;9.82;67.23;101484.63;5041221;28;19912;-78
2021/03/06 02:11:53;;;;;;;;;;;;;;;9.60;67.50;101492.50;5038685;28;19916;-79
2021/03/06 02:14:44;;;;;;;;;;;;;;;9.58;66.29;101491.97;5058457;28;20383;-79
2021/03/06 02:17:48;;;;;;;;;;;;;;;9.68;66.38;101491.88;5039496;28;19912;-78
2021/03/06 02:20:39;;;;;;;;;;;;;;;9.60;65.37;101508.81;5057671;28;19917;-81
2021/03/06 02:23:44;;;;;;;;;;;;;;;9.59;64.83;101516.16;5070024;23;19921;-86
2021/03/06 02:26:33;;;;;;;;;;;;;;;9.47;64.91;101528.47;5036901;28;19917;-86
2021/03/06 02:29:21;;;;;;;;;;;;;;;9.48;64.75;101532.81;5049009;28;19912;-87
2021/03/06 02:32:09;;;;;;;;;;;;;;;9.38;64.46;101534.56;5059364;28;19917;-86
2021/03/06 02:35:03;;;;;;;;;;;;;;;9.48;65.33;101552.63;5052927;28;20402;-85
2021/03/06 02:37:53;;;;;;;;;;;;;;;9.73;64.58;101573.28;5048032;28;20383;-85
2021/03/06 02:40:39;;;;;;;;;;;;;;;9.39;65.25;101562.50;5048822;28;19912;-85
2021/03/06 02:43:25;;;;;;;;;;;;;;;9.40;65.43;101573.06;5022395;28;19920;-86
2021/03/06 02:46:11;;;;;;;;;;;;;;;9.48;64.42;101573.53;5049891;28;19913;-87
2021/03/06 02:48:58;;;;;;;;;;;;;;;9.32;63.10;101592.69;5034422;28;19917;-88
2021/03/06 02:51:43;;;;;;;;;;;;;;;9.44;62.88;101593.13;5055782;28;20283;-88
2021/03/06 02:54:27;;;;;;;;;;;;;;;9.64;62.39;101607.59;5029162;28;19916;-88
2021/03/06 02:57:18;;;;;;;;;;;;;;;9.59;62.12;101602.22;5045954;28;19912;-87
2021/03/06 03:00:11;;;;;;;;;;;;;;;9.67;61.81;101613.25;5048050;28;20395;-85
2021/03/06 03:02:56;;;;;;;;;;;;;;;9.58;61.06;101614.97;5044718;28;19917;-86
2021/03/06 03:06:01;;;;;;;;;;;;;;;9.44;61.98;101612.13;5043555;28;19916;-86
2021/03/06 03:09:00;;;;;;;;;;;;;;;9.65;60.64;101612.72;5048681;28;19921;-86
2021/03/06 03:12:14;;;;;;;;;;;;;;;9.45;60.07;101610.19;5062460;28;19920;-86
2021/03/06 03:15:16;;;;;;;;;;;;;;;9.38;59.62;101615.97;5038837;28;20323;-86
2021/03/06 03:18:03;;;;;;;;;;;;;;;9.13;60.71;101623.53;5022730;28;19912;-84
2021/03/06 03:20:47;;;;;;;;;;;;;;;9.38;61.34;101615.97;5056198;28;19913;-84
2021/03/06 03:23:43;;;;;;;;;;;;;;;9.44;60.25;101624.91;5042629;28;20334;-84
2021/03/06 03:26:29;;;;;;;;;;;;;;;9.47;59.40;101621.59;5055765;28;19913;-84
2021/03/06 03:29:14;;;;;;;;;;;;;;;9.44;60.40;101635.75;5059263;28;19913;-84
2021/03/06 03:32:00;;;;;;;;;;;;;;;9.52;58.72;101639.75;5047533;28;19916;-87
2021/03/06 03:34:45;;;;;;;;;;;;;;;9.57;58.72;101640.50;5052839;28;19912;-87
2021/03/06 03:37:31;;;;;;;;;;;;;;;9.57;59.21;101639.69;5056134;28;19913;-87
2021/03/06 03:40:16;;;;;;;;;;;;;;;9.47;57.40;101643.31;5048547;28;19917;-86
2021/03/06 03:43:02;;;;;;;;;;;;;;;9.41;57.33;101649.88;5042488;28;19913;-87
2021/03/06 03:45:46;;;;;;;;;;;;;;;9.47;58.13;101658.78;5048806;28;19921;-87
2021/03/06 03:48:31;;;;;;;;;;;;;;;9.52;59.66;101664.19;5056412;28;20359;-87
2021/03/06 03:51:16;;;;;;;;;;;;;;;9.39;57.11;101671.91;5047699;28;19916;-87
2021/03/06 03:54:01;;;;;;;;;;;;;;;9.48;57.68;101674.00;5045906;28;19920;-85
2021/03/06 03:56:45;;;;;;;;;;;;;;;9.43;57.37;101683.00;5045137;28;19912;-85
2021/03/06 03:59:31;;;;;;;;;;;;;;;9.49;57.46;101676.44;5043761;28;20406;-84
2021/03/06 04:02:26;;;;;;;;;;;;;;;9.31;57.01;101686.06;5026939;28;19917;-85
2021/03/06 04:05:12;;;;;;;;;;;;;;;9.38;57.25;101685.75;5045772;28;20286;-85
2021/03/06 04:07:56;;;;;;;;;;;;;;;9.33;57.55;101694.75;5041971;28;19917;-85
2021/03/06 04:10:41;;;;;;;;;;;;;;;9.37;58.03;101701.22;5046228;28;19913;-85
2021/03/06 04:13:25;;;;;;;;;;;;;;;9.32;57.74;101714.81;5042591;28;19917;-85
2021/03/06 04:16:09;;;;;;;;;;;;;;;9.49;57.39;101716.34;5045882;28;19913;-85
2021/03/06 04:18:54;;;;;;;;;;;;;;;9.50;57.12;101721.47;5060753;28;19913;-85
2021/03/06 04:21:39;;;;;;;;;;;;;;;9.49;55.59;101729.91;5060001;28;19913;-86
2021/03/06 04:24:23;;;;;;;;;;;;;;;9.32;55.47;101731.13;5051786;28;19921;-85
2021/03/06 04:27:07;;;;;;;;;;;;;;;9.35;55.95;101725.09;5052308;28;19913;-86
2021/03/06 04:29:52;;;;;;;;;;;;;;;9.34;55.27;101737.09;5048639;28;19913;-85
2021/03/06 04:32:37;;;;;;;;;;;;;;;9.33;55.49;101734.63;5048587;28;19939;-85
2021/03/06 04:35:22;;;;;;;;;;;;;;;9.34;55.50;101737.09;5050876;28;19912;-85
2021/03/06 04:38:07;;;;;;;;;;;;;;;9.33;56.16;101738.16;5048620;28;20303;-85
2021/03/06 04:40:51;;;;;;;;;;;;;;;9.32;59.14;101735.72;5051928;28;19913;-82
2021/03/06 04:43:37;;;;;;;;;;;;;;;9.33;53.65;101749.03;5034493;28;19920;-84
2021/03/06 04:46:21;;;;;;;;;;;;;;;9.26;52.91;101758.56;5051248;28;19913;-85
2021/03/06 04:49:06;;;;;;;;;;;;;;;9.21;53.22;101759.41;5047182;28;19912;-84
2021/03/06 04:51:50;;;;;;;;;;;;;;;9.27;52.45;101761.00;5044575;28;19912;-83
2021/03/06 04:54:36;;;;;;;;;;;;;;;9.22;51.59;101763.75;5049234;28;19917;-84
2021/03/06 04:57:21;;;;;;;;;;;;;;;9.31;51.89;101772.91;5044330;28;20294;-85
2021/03/06 05:00:07;;;;;;;;;;;;;;;9.31;51.14;101772.91;5045756;28;20387;-86
2021/03/06 05:02:52;;;;;;;;;;;;;;;9.34;51.53;101780.50;5047237;28;19912;-86
2021/03/06 05:05:37;;;;;;;;;;;;;;;9.33;52.03;101781.59;5058252;28;19912;-85
2021/03/06 05:08:22;;;;;;;;;;;;;;;9.36;51.18;101786.44;5059693;28;19913;-85
2021/03/06 05:11:07;;;;;;;;;;;;;;;9.24;49.27;101788.72;5051310;28;19916;-86
2021/03/06 05:13:52;;;;;;;;;;;;;;;9.15;47.95;101793.06;5044308;28;19917;-86
2021/03/06 05:16:37;;;;;;;;;;;;;;;9.04;48.74;101810.50;5044783;28;19916;-85
2021/03/06 05:19:22;;;;;;;;;;;;;;;8.71;45.76;101801.13;5030938;28;19913;-86
2021/03/06 05:22:06;;;;;;;;;;;;;;;8.45;45.80;101810.41;5028897;28;19913;-86
2021/03/06 05:24:51;;;;;;;;;;;;;;;8.69;46.64;101810.63;5025155;28;19913;-85
2021/03/06 05:27:35;;;;;;;;;;;;;;;8.47;46.97;101814.47;5030828;28;20387;-85
2021/03/06 05:30:20;;;;;;;;;;;;;;;8.41;46.73;101820.19;5026244;28;19912;-87
2021/03/06 05:33:06;;;;;;;;;;;;;;;8.37;47.97;101821.81;5025194;28;19917;-86
2021/03/06 05:35:51;;;;;;;;;;;;;;;8.54;47.96;101825.03;5030038;28;19913;-86
2021/03/06 05:38:36;;;;;;;;;;;;;;;8.59;47.65;101822.31;5030258;28;20403;-87
2021/03/06 05:41:21;;;;;;;;;;;;;;;8.43;47.66;101821.50;5031088;28;20542;-86
2021/03/06 05:44:06;;;;;;;;;;;;;;;8.64;50.61;101827.72;5034998;28;19912;-86
2021/03/06 05:46:52;;;;;;;;;;;;;;;8.46;48.22;101829.13;5050075;28;20302;-85
2021/03/06 05:49:38;;;;;;;;;;;;;;;8.46;48.00;101828.31;5045641;28;19913;-85
2021/03/06 05:52:23;;;;;;;;;;;;;;;8.44;48.90;101834.00;5047374;28;19917;-86
2021/03/06 05:55:11;;;;;;;;;;;;;;;8.47;49.82;101830.75;5046632;28;19913;-85
2021/03/06 05:57:58;;;;;;;;;;;;;;;8.19;50.59;101825.84;5045106;28;19912;-86
2021/03/06 06:00:43;;;;;;;;;;;;;;;8.18;50.73;101829.63;5052412;28;19913;-87
2021/03/06 06:03:29;;;;;;;;;;;;;;;8.20;51.43;101845.63;5059368;28;20375;-87
2021/03/06 06:06:14;;;;;;;;;;;;;;;8.32;51.80;101849.75;5045348;28;20383;-87
2021/03/06 06:08:59;;;;;;;;;;;;;;;8.13;52.25;101856.72;5057735;28;19912;-85
2021/03/06 06:11:43;;;;;;;;;;;;;;;8.06;52.51;101853.50;5047951;28;19912;-86
2021/03/06 06:14:29;;;;;;;;;;;;;;;8.07;53.22;101852.41;5048871;28;19917;-87
2021/03/06 06:17:18;;;;;;;;;;;;;;;7.98;53.03;101867.56;5035589;28;19912;-87
2021/03/06 06:20:04;;;;;;;;;;;;;;;7.92;53.48;101871.38;5043134;28;20323;-86
2021/03/06 06:23:08;;;;;;;;;;;;;;;7.85;53.90;101871.63;5041109;28;19912;-86
2021/03/06 06:25:52;;;;;;;;;;;;;;;8.02;53.41;101880.31;5049836;28;19913;-86
2021/03/06 06:28:49;;;;;;;;;;;;;;;7.84;53.37;101888.13;5039709;28;19916;-85
2021/03/06 06:31:33;;;;;;;;;;;;;;;7.79;53.93;101896.22;5035052;28;19913;-84
2021/03/06 06:34:18;;;;;;;;;;;;;;;7.64;53.73;101905.94;5042581;28;19917;-83
2021/03/06 06:37:12;;;;;;;;;;;;;;;7.62;54.55;101902.69;5041546;28;19917;-84
2021/03/06 06:39:57;;;;;;;;;;;;;;;7.70;54.13;101904.91;5041396;28;19917;-83
2021/03/06 06:42:42;;;;;;;;;;;;;;;7.72;53.95;101907.31;5058568;28;20283;-84
2021/03/06 06:45:36;;;;;;;;;;;;;;;7.57;54.00;101915.38;5062632;28;20452;-83
2021/03/06 06:48:21;;;;;;;;;;;;;;;7.66;54.28;101916.53;5056323;28;19920;-84
2021/03/06 06:51:06;;;;;;;;;;;;;;;7.70;53.27;101925.72;5044824;28;19913;-84
2021/03/06 06:54:07;;;;;;;;;;;;;;;7.69;52.76;101924.09;5040841;28;19916;-84
2021/03/06 06:57:08;;;;;;;;;;;;;;;7.61;52.88;101928.16;5040744;28;19912;-84
2021/03/06 07:00:00;;;;;;;;;;;;;;;7.52;53.11;101939.72;5054268;28;19917;-84
2021/03/06 07:02:53;;;;;;;;;;;;;;;7.75;52.63;101942.00;5041650;28;19912;-85
2021/03/06 07:05:38;;;;;;;;;;;;;;;7.67;53.68;101946.00;5046656;28;20303;-86
2021/03/06 07:08:25;;;;;;;;;;;;;;;7.78;52.30;101954.16;5043516;28;19917;-85
2021/03/06 07:11:23;;;;;;;;;;;;;;;7.76;53.32;101961.75;5036872;28;19913;-85
2021/03/06 07:14:09;;;;;;;;;;;;;;;7.79;51.86;101966.63;5030737;28;20299;-83
2021/03/06 07:17:00;;;;;;;;;;;;;;;7.84;53.07;101977.47;5023539;28;19912;-84
2021/03/06 07:19:45;;;;;;;;;;;;;;;10.13;61.01;101998.69;5054188;28;19913;-78
2021/03/06 07:22:30;;;;;;;;;;;;;;;11.33;57.46;101998.81;5052461;28;19913;-79
2021/03/06 07:25:15;;;;;;;;;;;;;;;11.77;57.17;101998.63;5041867;28;19912;-78
2021/03/06 07:28:01;;;;;;;;;;;;;;;11.66;53.65;102002.53;5043563;28;19912;-78
2021/03/06 07:30:47;;;;;;;;;;;;;;;11.91;55.15;102004.97;5064484;28;20155;-77
2021/03/06 07:33:32;;;;;;;;;;;;;;;11.64;53.94;102007.47;5044761;28;19916;-77
2021/03/06 07:36:16;;;;;;;;;;;;;;;12.21;54.19;102019.31;5027472;28;19913;-78
2021/03/06 07:39:02;;;;;;;;;;;;;;;12.14;53.94;102022.38;5038233;28;19913;-78
2021/03/06 07:41:52;;;;;;;;;;;;;;;12.71;53.33;102025.91;5051030;28;19916;-79
2021/03/06 07:44:39;;;;;;;;;;;;;;;12.48;52.17;102030.38;5038547;28;19913;-78
2021/03/06 07:47:32;;;;;;;;;;;;;;;13.54;50.50;102036.78;5044306;28;19921;-78
2021/03/06 07:50:28;;;;;;;;;;;;;;;11.70;44.46;102033.53;5041347;28;19920;-83
2021/03/06 07:53:15;;;;;;;;;;;;;;;10.78;44.67;102040.16;5054772;28;19917;-81
2021/03/06 07:56:04;;;;;;;;;;;;;;;9.19;47.03;102032.97;5053335;28;19913;-81
2021/03/06 07:58:53;;;;;;;;;;;;;;;8.77;49.13;102037.88;5045142;28;19912;-83
2021/03/06 08:01:40;;;;;;;;;;;;;;;8.92;48.99;102043.28;5062912;28;19916;-82
2021/03/06 08:04:35;;;;;;;;;;;;;;;8.63;49.57;102047.63;5047879;28;19912;-83
2021/03/06 08:07:35;;;;;;;;;;;;;;;8.73;49.42;102048.44;5043050;28;19913;-82
2021/03/06 08:10:20;;;;;;;;;;;;;;;8.57;50.11;102047.63;5063252;28;19921;-80
2021/03/06 08:13:25;;;;;;;;;;;;;;;8.82;49.61;102049.53;5058717;28;19916;-82
2021/03/06 08:16:22;;;;;;;;;;;;;;;8.78;49.17;102047.63;5051936;28;20383;-84
2021/03/06 08:19:07;;;;;;;;;;;;;;;8.75;48.67;102043.56;5059112;28;19913;-82
2021/03/06 08:21:56;;;;;;;;;;;;;;;8.92;49.54;102046.81;5041639;28;20371;-83
2021/03/06 08:24:42;;;;;;;;;;;;;;;9.00;48.63;102042.75;5069496;23;19940;-78
2021/03/06 08:27:27;;;;;;;;;;;;;;;8.88;49.40;102042.22;5053836;28;19917;-78
2021/03/06 08:30:25;;;;;;;;;;;;;;;8.91;48.43;102041.66;5075061;28;19912;-78
2021/03/06 08:33:13;;;;;;;;;;;;;;;8.59;47.77;102053.56;5072141;28;20290;-78
2021/03/06 08:36:17;;;;;;;;;;;;;;;8.46;49.33;102053.28;5094647;28;19911;-80
2021/03/06 08:39:04;;;;;;;;;;;;;;;8.54;50.40;102064.41;5086112;28;20266;-78
2021/03/06 08:41:48;;;;;;;;;;;;;;;8.65;49.52;102067.13;5069375;28;20294;-79
2021/03/06 08:44:33;;;;;;;;;;;;;;;8.80;48.71;102069.84;5067996;28;19920;-79
2021/03/06 08:47:22;;;;;;;;;;;;;;;8.64;48.79;102060.06;5064369;28;19913;-85
2021/03/06 08:50:25;;;;;;;;;;;;;;;8.79;49.14;102065.50;5059452;28;19912;-79
2021/03/06 08:53:14;;;;;;;;;;;;;;;8.82;46.91;102065.00;5067856;28;19916;-79
2021/03/06 08:56:00;;;;;;;;;;;;;;;8.90;46.91;102067.16;5048318;28;19912;-80
2021/03/06 08:58:45;;;;;;;;;;;;;;;9.04;47.38;102070.94;5062486;28;19916;-79
2021/03/06 09:01:34;;;;;;;;;;;;;;;9.22;47.47;102078.56;5045521;28;19912;-80
2021/03/06 09:04:28;;;;;;;;;;;;;;;9.21;44.92;102076.09;5075383;28;19912;-79
2021/03/06 09:07:28;;;;;;;;;;;;;;;8.90;44.68;102078.00;5075618;28;19917;-79
2021/03/06 09:10:28;;;;;;;;;;;;;;;9.07;45.47;102075.84;5075972;28;20318;-80
2021/03/06 09:13:21;;;;;;;;;;;;;;;9.00;43.85;102078.81;5048050;28;19917;-80
2021/03/06 09:16:05;;;;;;;;;;;;;;;9.13;43.49;102076.66;5045882;28;20318;-79
2021/03/06 09:18:51;;;;;;;;;;;;;;;9.19;44.31;102095.41;5059909;28;19920;-79
2021/03/06 09:21:36;;;;;;;;;;;;;;;9.19;45.00;102091.88;5075237;28;19912;-79
2021/03/06 09:24:20;;;;;;;;;;;;;;;9.22;43.12;102094.03;5074727;28;19913;-79
2021/03/06 09:27:05;;;;;;;;;;;;;;;9.23;42.52;102088.34;5064932;28;19916;-81
2021/03/06 09:29:50;;;;;;;;;;;;;;;9.24;44.39;102087.25;5048859;28;19920;-84
2021/03/06 09:32:35;;;;;;;;;;;;;;;10.65;49.33;102096.03;5059298;28;20406;-84
2021/03/06 09:35:20;;;;;;;;;;;;;;;10.75;46.49;102101.41;5061283;28;19920;-82
2021/03/06 09:38:06;;;;;;;;;;;;;;;11.20;45.38;102102.16;5052124;28;19912;-84
2021/03/06 09:40:52;;;;;;;;;;;;;;;11.39;44.54;102097.63;5059130;28;20291;-85
2021/03/06 09:43:37;;;;;;;;;;;;;;;11.48;42.57;102112.22;5052925;28;19912;-84
2021/03/06 09:46:27;;;;;;;;;;;;;;;10.47;39.59;102105.63;5059253;28;19912;-83
2021/03/06 09:49:16;;;;;;;;;;;;;;;11.57;42.70;102116.81;5046139;28;19912;-85
2021/03/06 09:52:01;;;;;;;;;;;;;;;11.32;38.89;102121.66;5049613;28;19912;-84
2021/03/06 09:54:45;;;;;;;;;;;;;;;11.28;43.79;102121.41;5048837;28;19921;-84
2021/03/06 09:57:30;;;;;;;;;;;;;;;11.51;42.49;102125.31;5060277;28;19913;-82
2021/03/06 10:00:22;;;;;;;;;;;;;;;11.48;43.17;102132.13;5059202;28;20378;-85
2021/03/06 10:03:07;;;;;;;;;;;;;;;10.65;38.31;102125.94;5062993;28;19913;-86
2021/03/06 10:05:53;;;;;;;;;;;;;;;10.35;40.17;102128.84;5045193;28;19912;-80
2021/03/06 10:08:44;;;;;;;;;;;;;;;10.34;39.24;102133.44;5063372;28;19912;-83
2021/03/06 10:11:30;;;;;;;;;;;;;;;10.07;40.27;102124.81;5046691;28;20290;-79
2021/03/06 10:14:19;;;;;;;;;;;;;;;10.24;39.59;102130.78;5060550;28;19917;-78
2021/03/06 10:17:06;;;;;;;;;;;;;;;10.21;39.94;102134.03;5064782;28;20394;-78
2021/03/06 10:19:53;;;;;;;;;;;;;;;9.85;40.23;102128.69;5067677;28;19912;-78
2021/03/06 10:22:45;;;;;;;;;;;;;;;9.87;40.88;102139.28;5060721;28;19912;-78
2021/03/06 10:25:30;;;;;;;;;;;;;;;9.95;41.59;102135.19;5060218;28;19912;-78
2021/03/06 10:28:14;;;;;;;;;;;;;;;10.05;41.05;102136.00;5062181;28;19916;-79
2021/03/06 10:30:59;;;;;;;;;;;;;;;9.85;39.43;102136.03;5066348;28;20286;-78
2021/03/06 10:33:44;;;;;;;;;;;;;;;9.91;40.12;102134.91;5065060;28;19924;-79
2021/03/06 10:36:30;;;;;;;;;;;;;;;10.05;40.66;102127.84;5075528;28;20298;-79
2021/03/06 10:39:16;;;;;;;;;;;;;;;10.22;39.78;102132.94;5046543;28;19912;-78
2021/03/06 10:42:01;;;;;;;;;;;;;;;10.27;40.85;102133.75;5064954;28;19931;-79
2021/03/06 10:44:45;;;;;;;;;;;;;;;10.20;37.12;102132.44;5078089;28;19912;-79
2021/03/06 10:47:44;;;;;;;;;;;;;;;10.09;38.24;102128.09;5067566;28;20278;-79
2021/03/06 10:50:34;;;;;;;;;;;;;;;10.37;38.96;102135.59;5076292;28;20302;-76
2021/03/06 10:53:20;;;;;;;;;;;;;;;10.47;37.91;102148.34;5058984;28;20374;-78
2021/03/06 10:56:17;;;;;;;;;;;;;;;10.53;38.96;102147.22;5072699;28;19912;-79
2021/03/06 10:59:02;;;;;;;;;;;;;;;10.63;38.44;102141.72;5082868;28;19912;-78
2021/03/06 11:01:48;;;;;;;;;;;;;;;10.81;37.81;102146.53;5080631;28;19915;-77
2021/03/06 11:04:34;;;;;;;;;;;;;;;10.88;36.71;102148.94;5094187;28;19908;-78
2021/03/06 11:07:27;;;;;;;;;;;;;;;10.93;38.10;102147.00;5103783;28;19923;-77
2021/03/06 11:10:12;;;;;;;;;;;;;;;11.03;35.55;102146.09;5125474;28;19899;-78
2021/03/06 11:12:57;;;;;;;;;;;;;;;11.11;35.15;102140.88;5132457;28;19911;-77
2021/03/06 11:15:53;;;;;;;;;;;;;;;11.23;37.23;102134.25;5100182;28;19916;-77
2021/03/06 11:18:38;;;;;;;;;;;;;;;11.23;33.86;102131.53;5105446;28;19916;-76
2021/03/06 11:21:23;;;;;;;;;;;;;;;11.01;34.52;102142.88;5089622;28;19911;-78
2021/03/06 11:24:09;;;;;;;;;;;;;;;11.01;32.91;102134.69;5087409;28;19912;-79
2021/03/06 11:26:56;;;;;;;;;;;;;;;11.05;34.33;102133.84;5105545;28;19912;-79
2021/03/06 11:29:41;;;;;;;;;;;;;;;11.01;34.73;102130.06;5084874;28;19916;-79
2021/03/06 11:32:25;;;;;;;;;;;;;;;11.02;31.47;102120.00;5081473;28;20293;-79
2021/03/06 11:35:10;;;;;;;;;;;;;;;11.12;33.60;102118.00;5080611;28;19912;-79
2021/03/06 11:37:55;;;;;;;;;;;;;;;11.15;32.11;102111.19;5104291;28;19916;-79
2021/03/06 11:40:42;;;;;;;;;;;;;;;11.10;33.45;102109.31;5113775;28;19912;-79
2021/03/06 11:43:26;;;;;;;;;;;;;;;11.14;33.65;102110.38;5099821;28;19915;-79
2021/03/06 11:46:11;;;;;;;;;;;;;;;11.32;33.00;102117.03;5113843;28;19915;-75
2021/03/06 11:48:56;;;;;;;;;;;;;;;11.27;33.10;102110.81;5084366;28;20381;-79
2021/03/06 11:51:41;;;;;;;;;;;;;;;11.15;35.29;102103.81;5107434;28;19913;-79
2021/03/06 11:54:25;;;;;;;;;;;;;;;11.22;35.82;102102.69;5111131;28;19920;-79
2021/03/06 11:57:09;;;;;;;;;;;;;;;11.33;36.52;102090.59;5104070;28;19915;-78
2021/03/06 11:59:54;;;;;;;;;;;;;;;11.23;34.44;102088.78;5099681;28;19912;-79
2021/03/06 12:02:38;;;;;;;;;;;;;;;11.33;36.42;102087.88;5103269;28;19912;-78
2021/03/06 12:05:25;;;;;;;;;;;;;;;11.50;32.48;102090.97;5083514;28;19912;-78
2021/03/06 12:08:10;;;;;;;;;;;;;;;11.56;33.21;102085.19;5087732;28;19911;-78
2021/03/06 12:10:54;;;;;;;;;;;;;;;11.46;32.30;102089.94;5097334;28;19912;-79
2021/03/06 12:13:39;;;;;;;;;;;;;;;11.41;33.00;102081.81;5085045;28;20278;-78
2021/03/06 12:16:24;;;;;;;;;;;;;;;11.51;32.52;102092.63;5083175;28;20294;-78
2021/03/06 12:19:09;;;;;;;;;;;;;;;11.63;31.93;102084.84;5081289;28;19912;-79
2021/03/06 12:21:54;;;;;;;;;;;;;;;11.62;33.40;102091.41;5085639;28;19919;-78
2021/03/06 12:24:38;;;;;;;;;;;;;;;11.47;32.80;102081.50;5090871;28;19912;-78
2021/03/06 12:27:23;;;;;;;;;;;;;;;11.64;34.08;102094.66;5082979;28;19911;-78
2021/03/06 12:30:11;;;;;;;;;;;;;;;11.82;32.67;102083.06;5105456;28;19912;-78
2021/03/06 12:32:55;;;;;;;;;;;;;;;12.07;32.07;102081.13;5105973;28;19912;-79
2021/03/06 12:35:39;;;;;;;;;;;;;;;12.11;30.90;102082.16;5098616;28;19920;-79
2021/03/06 12:38:24;;;;;;;;;;;;;;;12.23;31.24;102077.09;5106661;28;19916;-78
2021/03/06 12:41:08;;;;;;;;;;;;;;;12.20;32.89;102072.22;5102736;28;19912;-77
2021/03/06 12:43:52;;;;;;;;;;;;;;;12.13;33.21;102067.13;5108006;28;19912;-77
2021/03/06 12:46:37;;;;;;;;;;;;;;;12.19;32.55;102059.72;5104345;28;19911;-78
2021/03/06 12:49:22;;;;;;;;;;;;;;;12.30;31.88;102055.72;5123972;28;19912;-79
2021/03/06 12:52:07;;;;;;;;;;;;;;;12.46;30.66;102059.84;5106367;28;20305;-78
2021/03/06 12:54:52;;;;;;;;;;;;;;;12.31;31.81;102044.53;5104971;28;19919;-78
2021/03/06 12:57:37;;;;;;;;;;;;;;;12.32;30.66;102042.59;5103357;28;19919;-78
2021/03/06 13:00:22;;;;;;;;;;;;;;;12.40;31.15;102033.75;5104710;28;19912;-78
2021/03/06 13:03:07;;;;;;;;;;;;;;;12.37;30.40;102035.16;5092242;28;19916;-79
2021/03/06 13:05:53;;;;;;;;;;;;;;;12.62;30.77;102030.44;5092181;28;19912;-78
2021/03/06 13:08:37;;;;;;;;;;;;;;;12.44;30.39;102029.34;5082163;28;19916;-78
2021/03/06 13:11:22;;;;;;;;;;;;;;;12.46;31.88;102016.19;5081844;28;19912;-78
2021/03/06 13:14:07;;;;;;;;;;;;;;;12.21;32.26;102017.38;5097031;28;19912;-77
2021/03/06 13:16:51;;;;;;;;;;;;;;;12.40;30.75;102015.47;5097658;28;20294;-78
2021/03/06 13:19:36;;;;;;;;;;;;;;;12.42;30.43;102016.00;5082161;28;19912;-78
2021/03/06 13:22:20;;;;;;;;;;;;;;;12.73;30.72;102013.59;5095999;28;19911;-79
2021/03/06 13:25:06;;;;;;;;;;;;;;;12.69;30.60;102018.03;5079468;28;19911;-79
2021/03/06 13:27:50;;;;;;;;;;;;;;;12.91;29.72;102014.66;5079023;28;19915;-78
2021/03/06 13:30:35;;;;;;;;;;;;;;;13.09;29.56;102013.81;5082038;28;19912;-78
2021/03/06 13:33:20;;;;;;;;;;;;;;;13.01;29.89;102017.22;5119206;28;20308;-79
2021/03/06 13:36:06;;;;;;;;;;;;;;;12.88;31.07;102022.66;5117641;28;19915;-78
2021/03/06 13:38:50;;;;;;;;;;;;;;;12.66;29.23;102015.88;5108045;28;19975;-78
2021/03/06 13:41:35;;;;;;;;;;;;;;;12.87;29.61;102024.56;5118656;28;19911;-78
2021/03/06 13:44:21;;;;;;;;;;;;;;;13.05;28.47;102023.72;5090392;28;20290;-78
2021/03/06 13:47:06;;;;;;;;;;;;;;;13.17;29.12;102015.88;5104250;28;19912;-78
2021/03/06 13:49:51;;;;;;;;;;;;;;;13.11;28.66;102011.59;5108905;28;19916;-78
2021/03/06 13:52:35;;;;;;;;;;;;;;;13.23;28.40;102019.31;5077858;28;19912;-78
2021/03/06 13:55:20;;;;;;;;;;;;;;;13.31;29.25;102024.09;5083721;28;19912;-77
2021/03/06 13:58:04;;;;;;;;;;;;;;;13.18;30.31;102016.69;5097998;28;19916;-77
2021/03/06 14:00:49;;;;;;;;;;;;;;;13.27;29.07;102009.41;5104264;28;19914;-78
2021/03/06 14:03:33;;;;;;;;;;;;;;;13.09;29.61;102018.47;5117056;28;19912;-79
2021/03/06 14:06:21;;;;;;;;;;;;;;;12.95;29.02;102023.09;5101626;28;19915;-79
2021/03/06 14:09:06;;;;;;;;;;;;;;;12.90;29.38;102026.69;5089694;28;19912;-78
2021/03/06 14:11:50;;;;;;;;;;;;;;;12.89;28.80;102027.00;5088319;28;19911;-78
2021/03/06 14:14:35;;;;;;;;;;;;;;;13.13;28.35;102024.97;5106077;28;19912;-76
2021/03/06 14:17:20;;;;;;;;;;;;;;;13.08;27.68;102019.56;5101701;28;20285;-78
2021/03/06 14:20:05;;;;;;;;;;;;;;;13.17;28.99;102021.34;5101858;28;19912;-78
2021/03/06 14:22:50;;;;;;;;;;;;;;;13.40;28.70;102016.84;5117638;28;19912;-79
2021/03/06 14:25:36;;;;;;;;;;;;;;;13.39;30.37;102015.22;5111351;22;19921;-81